Time;durP1;ratioP1;P1;durP2;ratioP2;P2;SDS_P1;SDS_P2;PMS_P1;PMS_P2;Temp;Humidity;BMP_temperature;BMP_pressure;BME280_temperature;BME280_humidity;BME280_pressure;Samples;Min_cycle;Max_cycle;Signal;HPM_P1;HPM_P2
2022/10/27 00:01:15;;;;;;;17.25;4.70;;;;;;;12.61;100.00;101954.31;5044557;28;20066;-66
2022/10/27 00:03:40;;;;;;;17.00;4.90;;;;;;;12.59;100.00;101953.38;5041459;28;20029;-66
2022/10/27 00:06:07;;;;;;;17.88;4.70;;;;;;;12.53;100.00;101951.53;5044574;28;20423;-66
2022/10/27 00:08:33;;;;;;;14.40;4.47;;;;;;;12.49;100.00;101948.81;5041747;28;20040;-66
2022/10/27 00:11:01;;;;;;;16.85;4.80;;;;;;;12.43;100.00;101954.91;5043448;28;20083;-66
2022/10/27 00:13:27;;;;;;;17.40;4.70;;;;;;;12.30;100.00;101959.16;5042754;28;20065;-66
2022/10/27 00:15:58;;;;;;;17.25;4.80;;;;;;;12.22;100.00;101958.16;5042185;28;20041;-66
2022/10/27 00:18:23;;;;;;;14.93;4.68;;;;;;;12.23;100.00;101956.38;5041429;28;20040;-66
2022/10/27 00:21:06;;;;;;;18.45;4.80;;;;;;;12.18;100.00;101958.97;5041794;28;20507;-66
2022/10/27 00:23:32;;;;;;;18.70;4.85;;;;;;;12.21;100.00;101954.59;5042020;28;20056;-66
2022/10/27 00:25:59;;;;;;;16.85;4.72;;;;;;;12.17;100.00;101965.13;5042701;28;20063;-68
2022/10/27 00:28:25;;;;;;;16.17;4.40;;;;;;;12.25;100.00;101959.97;5042657;28;20039;-68
2022/10/27 00:31:02;;;;;;;16.90;4.63;;;;;;;12.16;100.00;101963.38;5042923;28;20048;-69
2022/10/27 00:33:28;;;;;;;16.48;4.63;;;;;;;12.21;100.00;101959.91;5046353;28;20071;-69
2022/10/27 00:35:54;;;;;;;17.50;4.65;;;;;;;12.17;100.00;101960.75;5046269;28;20022;-69
2022/10/27 00:38:21;;;;;;;17.20;4.78;;;;;;;12.15;100.00;101966.88;5047420;28;20035;-68
2022/10/27 00:40:46;;;;;;;15.70;4.72;;;;;;;12.17;100.00;101973.09;5045157;28;20433;-68
2022/10/27 00:43:35;;;;;;;19.27;4.68;;;;;;;12.10;100.00;101972.13;5048436;28;20076;-68
2022/10/27 00:46:40;;;;;;;17.48;4.90;;;;;;;12.18;100.00;101973.13;5045786;28;20037;-69
2022/10/27 00:49:10;;;;;;;17.10;4.65;;;;;;;12.26;100.00;101975.00;5046317;28;20030;-68
2022/10/27 00:51:42;;;;;;;17.45;4.65;;;;;;;12.30;100.00;101980.34;5044930;28;20050;-68
2022/10/27 00:54:08;;;;;;;17.70;4.80;;;;;;;12.33;100.00;101983.09;5047964;28;20024;-67
2022/10/27 00:56:35;;;;;;;17.52;4.93;;;;;;;12.44;100.00;101982.34;5045550;28;20036;-69
2022/10/27 00:59:01;;;;;;;18.20;4.75;;;;;;;12.37;100.00;101976.06;5044423;28;20026;-68
2022/10/27 01:01:27;;;;;;;16.92;4.70;;;;;;;12.53;100.00;101970.09;5047066;28;20025;-69
2022/10/27 01:03:53;;;;;;;16.30;4.78;;;;;;;12.58;100.00;101974.56;5048090;28;20025;-68
2022/10/27 01:06:19;;;;;;;17.20;4.70;;;;;;;12.54;100.00;101977.19;5045348;28;20509;-67
2022/10/27 01:08:44;;;;;;;18.05;4.88;;;;;;;12.53;100.00;101978.06;5046132;28;20464;-66
2022/10/27 01:11:09;;;;;;;17.13;4.97;;;;;;;12.66;100.00;101979.13;5046582;28;20021;-66
2022/10/27 01:13:36;;;;;;;17.98;5.10;;;;;;;12.68;100.00;101982.69;5044657;28;20035;-67
2022/10/27 01:16:44;;;;;;;17.17;4.68;;;;;;;12.70;100.00;101980.06;5047712;28;20487;-67
2022/10/27 01:19:41;;;;;;;17.52;4.55;;;;;;;12.65;100.00;101987.94;5024216;28;20408;-67
2022/10/27 01:22:29;;;;;;;19.20;5.13;;;;;;;12.79;100.00;101985.50;5020236;28;20428;-66
2022/10/27 01:25:24;;;;;;;16.73;4.45;;;;;;;12.72;100.00;101984.50;5022441;28;20461;-67
2022/10/27 01:27:50;;;;;;;18.02;4.82;;;;;;;12.86;100.00;101987.34;5023628;28;20034;-66
2022/10/27 01:30:22;;;;;;;15.02;4.40;;;;;;;12.83;100.00;101987.31;5023486;28;20036;-66
2022/10/27 01:33:11;;;;;;;17.95;4.72;;;;;;;12.89;100.00;101981.19;5023951;28;20053;-66
2022/10/27 01:35:56;;;;;;;17.30;5.03;;;;;;;12.93;100.00;101991.00;5019894;28;20034;-66
2022/10/27 01:38:31;;;;;;;18.02;4.85;;;;;;;12.92;100.00;101997.16;5022219;28;20188;-66
2022/10/27 01:41:14;;;;;;;18.95;5.22;;;;;;;12.97;100.00;102002.53;5008198;28;20451;-66
2022/10/27 01:43:40;;;;;;;19.13;5.30;;;;;;;12.96;100.00;101992.75;5022248;28;20181;-66
2022/10/27 01:46:08;;;;;;;16.77;4.80;;;;;;;12.96;100.00;101987.47;5024670;28;20037;-66
2022/10/27 01:48:38;;;;;;;20.33;5.15;;;;;;;12.93;100.00;101996.31;5021997;28;20580;-66
2022/10/27 01:51:05;;;;;;;18.60;5.15;;;;;;;12.94;100.00;101989.22;5024020;28;20501;-66
2022/10/27 01:53:35;;;;;;;19.13;5.03;;;;;;;12.95;100.00;101989.22;5037225;28;20124;-66
2022/10/27 01:56:03;;;;;;;18.70;4.78;;;;;;;12.93;100.00;101991.00;5039847;28;20503;-66
2022/10/27 01:58:56;;;;;;;18.17;5.03;;;;;;;12.89;100.00;101984.72;5038191;28;20043;-66
2022/10/27 02:01:46;;;;;;;17.38;5.00;;;;;;;12.87;100.00;101991.78;5046710;28;20432;-67
2022/10/27 02:04:35;;;;;;;16.33;4.88;;;;;;;12.90;100.00;101983.88;5045069;28;20037;-66
2022/10/27 02:07:13;;;;;;;17.63;4.93;;;;;;;12.91;100.00;101987.41;5042157;28;20481;-66
2022/10/27 02:09:55;;;;;;;18.00;5.03;;;;;;;12.87;100.00;101978.53;5044536;28;20017;-66
2022/10/27 02:12:26;;;;;;;;;;;;;;;12.80;100.00;101973.09;5040060;28;20510;-68
2022/10/27 02:14:55;;;;;;;18.73;5.30;;;;;;;12.73;100.00;101981.00;5039518;28;20015;-68
2022/10/27 02:17:24;;;;;;;19.50;4.90;;;;;;;12.71;100.00;101976.53;5039960;28;20021;-69
2022/10/27 02:19:53;;;;;;;18.70;5.25;;;;;;;12.70;100.00;101974.75;5038970;28;20087;-68
2022/10/27 02:22:20;;;;;;;18.00;5.15;;;;;;;12.62;100.00;101976.41;5038996;28;20076;-68
2022/10/27 02:24:46;;;;;;;18.83;4.97;;;;;;;12.68;100.00;101965.88;5046284;28;20120;-68
2022/10/27 02:27:19;;;;;;;17.50;5.25;;;;;;;12.60;100.00;101964.91;5043555;28;20029;-69
2022/10/27 02:29:47;;;;;;;17.30;4.93;;;;;;;12.62;100.00;101968.44;5046045;28;20477;-69
2022/10/27 02:32:17;;;;;;;18.77;5.10;;;;;;;12.52;100.00;101964.78;5043567;28;20112;-67
2022/10/27 02:34:44;;;;;;;17.85;5.10;;;;;;;12.56;100.00;101961.28;5040577;28;20544;-69
2022/10/27 02:37:17;;;;;;;20.17;5.50;;;;;;;12.47;100.00;101961.19;5044112;28;20037;-69
2022/10/27 02:39:43;;;;;;;18.30;5.38;;;;;;;12.41;100.00;101963.72;5038729;28;20385;-68
2022/10/27 02:42:08;;;;;;;20.40;5.13;;;;;;;12.32;100.00;101967.13;5045469;28;20033;-68
2022/10/27 02:44:33;;;;;;;18.55;5.20;;;;;;;12.29;100.00;101967.09;5042445;28;20036;-69
2022/10/27 02:46:58;;;;;;;18.30;5.30;;;;;;;12.27;100.00;101968.84;5044023;28;20025;-68
2022/10/27 02:49:24;;;;;;;19.95;5.13;;;;;;;12.19;100.00;101963.41;5045208;28;20107;-68
2022/10/27 02:51:49;;;;;;;17.73;5.55;;;;;;;12.21;100.00;101959.91;5042202;28;20575;-69
2022/10/27 02:54:14;;;;;;;17.67;5.40;;;;;;;12.13;100.00;101966.88;5045161;28;20037;-69
2022/10/27 02:56:40;;;;;;;20.33;5.50;;;;;;;12.20;100.00;101958.16;5042873;28;20091;-66
2022/10/27 02:59:05;;;;;;;19.33;5.40;;;;;;;12.19;100.00;101956.34;5041396;28;20583;-66
2022/10/27 03:01:30;;;;;;;18.95;5.47;;;;;;;12.23;100.00;101951.09;5043002;28;20388;-66
2022/10/27 03:03:56;;;;;;;20.20;5.38;;;;;;;12.24;100.00;101952.88;5044413;28;20099;-66
2022/10/27 03:06:21;;;;;;;18.35;5.10;;;;;;;12.13;100.00;101950.97;5043801;28;20028;-66
2022/10/27 03:08:46;;;;;;;18.45;5.30;;;;;;;12.18;100.00;101945.72;5043019;28;20028;-66
2022/10/27 03:11:11;;;;;;;17.80;5.30;;;;;;;12.18;100.00;101938.66;5045368;28;20025;-66
2022/10/27 03:13:37;;;;;;;20.77;5.32;;;;;;;12.20;100.00;101936.94;5042207;28;20447;-66
2022/10/27 03:16:02;;;;;;;19.33;5.60;;;;;;;12.25;100.00;101926.41;5045298;28;20032;-66
2022/10/27 03:18:27;;;;;;;18.65;5.38;;;;;;;12.27;100.00;101923.75;5043023;28;20041;-66
2022/10/27 03:20:53;;;;;;;18.10;5.22;;;;;;;12.27;100.00;101929.06;5043463;28;20075;-67
2022/10/27 03:23:18;;;;;;;19.48;5.13;;;;;;;12.27;100.00;101919.34;5044215;28;20365;-66
2022/10/27 03:25:44;;;;;;;18.65;5.07;;;;;;;12.17;100.00;101925.38;5042305;28;20064;-67
2022/10/27 03:28:10;;;;;;;18.33;5.38;;;;;;;12.18;100.00;101917.44;5045000;28;20028;-66
2022/10/27 03:30:36;;;;;;;18.23;5.20;;;;;;;12.13;100.00;101924.47;5038114;28;20144;-66
2022/10/27 03:33:02;;;;;;;18.00;5.22;;;;;;;12.12;100.00;101917.38;5044489;28;20021;-66
2022/10/27 03:35:27;;;;;;;17.50;5.20;;;;;;;12.05;100.00;101926.09;5042615;28;20392;-66
2022/10/27 03:38:00;;;;;;;18.50;5.15;;;;;;;11.97;100.00;101928.63;5043591;28;20052;-66
2022/10/27 03:40:26;;;;;;;18.60;5.00;;;;;;;11.83;100.00;101924.81;5042690;28;20044;-66
2022/10/27 03:42:56;;;;;;;19.00;5.03;;;;;;;11.74;100.00;101917.63;5042879;28;20527;-66
2022/10/27 03:45:21;;;;;;;17.25;4.97;;;;;;;11.78;100.00;101919.47;5043560;28;20052;-66
2022/10/27 03:47:47;;;;;;;20.70;5.65;;;;;;;11.74;100.00;101911.44;5042566;28;20057;-66
2022/10/27 03:50:12;;;;;;;19.40;5.63;;;;;;;11.72;100.00;101913.16;5044368;28;20023;-66
2022/10/27 03:52:37;;;;;;;18.92;5.53;;;;;;;11.68;100.00;101923.69;5041090;28;20503;-66
2022/10/27 03:55:03;;;;;;;19.60;5.18;;;;;;;11.65;100.00;101918.34;5044427;28;20032;-66
2022/10/27 03:57:28;;;;;;;18.50;5.55;;;;;;;11.65;100.00;101909.53;5042273;28;20033;-68
2022/10/27 03:59:53;;;;;;;19.17;5.28;;;;;;;11.59;100.00;101914.69;5041861;28;20091;-68
2022/10/27 04:02:19;;;;;;;17.95;5.28;;;;;;;11.52;100.00;101916.38;5043586;28;20033;-68
2022/10/27 04:04:44;;;;;;;18.38;5.30;;;;;;;11.48;100.00;101914.53;5042245;28;20032;-68
2022/10/27 04:07:09;;;;;;;18.15;5.50;;;;;;;11.49;100.00;101918.97;5042802;28;20060;-68
2022/10/27 04:09:35;;;;;;;19.48;5.30;;;;;;;11.34;100.00;101914.25;5043362;28;20029;-69
2022/10/27 04:12:00;;;;;;;18.50;5.32;;;;;;;11.34;100.00;101924.84;5041768;28;20033;-68
2022/10/27 04:14:25;;;;;;;17.48;5.00;;;;;;;11.28;100.00;101924.75;5044313;28;20510;-68
2022/10/27 04:16:51;;;;;;;17.52;5.45;;;;;;;11.31;100.00;101932.75;5041475;28;20070;-68
2022/10/27 04:19:19;;;;;;;19.35;5.65;;;;;;;11.29;100.00;101942.44;5043792;28;20097;-68
2022/10/27 04:21:45;;;;;;;20.17;6.30;;;;;;;11.31;100.00;101941.59;5042281;28;20480;-68
2022/10/27 04:24:11;;;;;;;19.98;5.72;;;;;;;11.30;100.00;101942.44;5042405;28;20021;-68
2022/10/27 04:26:36;;;;;;;19.80;6.00;;;;;;;11.26;100.00;101942.38;5043558;28;20388;-68
2022/10/27 04:29:02;;;;;;;19.70;6.53;;;;;;;11.26;100.00;101942.38;5041359;28;20037;-68
2022/10/27 04:31:27;;;;;;;19.98;6.50;;;;;;;11.25;100.00;101943.22;5044501;28;20029;-68
2022/10/27 04:33:52;;;;;;;20.75;6.65;;;;;;;11.25;100.00;101938.81;5041006;28;20030;-69
2022/10/27 04:36:18;;;;;;;18.65;6.65;;;;;;;11.22;100.00;101940.53;5043349;28;20037;-69
2022/10/27 04:38:46;;;;;;;20.45;6.65;;;;;;;11.16;100.00;101936.88;5041848;28;20025;-68
2022/10/27 04:41:12;;;;;;;22.15;7.25;;;;;;;11.21;100.00;101936.09;5041070;28;20029;-68
2022/10/27 04:43:37;;;;;;;20.88;6.97;;;;;;;11.14;100.00;101946.56;5042103;28;20104;-68
2022/10/27 04:46:02;;;;;;;20.38;6.95;;;;;;;11.20;100.00;101943.16;5043631;28;20021;-66
2022/10/27 04:48:27;;;;;;;19.48;6.65;;;;;;;11.24;100.00;101941.44;5039535;28;20041;-66
2022/10/27 04:50:53;;;;;;;19.77;6.78;;;;;;;11.15;100.00;101947.44;5044007;28;20033;-66
2022/10/27 04:53:18;;;;;;;20.80;6.88;;;;;;;11.24;100.00;101941.44;5041390;28;20052;-66
2022/10/27 04:55:43;;;;;;;20.42;7.00;;;;;;;11.26;100.00;101937.06;5042449;28;20484;-66
2022/10/27 04:58:09;;;;;;;21.17;6.78;;;;;;;11.31;100.00;101941.59;5042470;28;20025;-66
2022/10/27 05:00:34;;;;;;;19.55;6.53;;;;;;;11.37;100.00;101955.78;5044138;28;20029;-66
2022/10/27 05:02:59;;;;;;;21.98;6.50;;;;;;;11.43;100.00;101945.31;5041999;28;20025;-66
2022/10/27 05:05:26;;;;;;;21.67;6.72;;;;;;;11.51;100.00;101939.28;5043350;28;20056;-66
2022/10/27 05:08:02;;;;;;;19.95;6.53;;;;;;;11.57;100.00;101942.94;5040903;28;20052;-66
2022/10/27 05:10:31;;;;;;;20.23;6.60;;;;;;;11.57;100.00;101941.16;5043051;28;20029;-66
2022/10/27 05:12:57;;;;;;;21.70;6.95;;;;;;;11.69;100.00;101940.47;5041459;28;20018;-67
2022/10/27 05:15:23;;;;;;;20.52;6.50;;;;;;;11.74;100.00;101941.47;5043194;28;20029;-66
2022/10/27 05:17:49;;;;;;;19.30;6.43;;;;;;;11.71;100.00;101946.72;5041304;28;20021;-66
2022/10/27 05:20:15;;;;;;;20.70;6.25;;;;;;;11.71;100.00;101943.16;5039927;28;20037;-66
2022/10/27 05:22:40;;;;;;;20.85;6.40;;;;;;;11.70;100.00;101942.28;5047126;28;20021;-66
2022/10/27 05:25:06;;;;;;;18.65;6.15;;;;;;;11.71;100.00;101937.84;5045454;28;20116;-66
2022/10/27 05:27:32;;;;;;;20.40;6.38;;;;;;;11.70;100.00;101944.91;5045897;28;20415;-68
2022/10/27 05:29:57;;;;;;;19.65;6.60;;;;;;;11.69;100.00;101935.19;5046627;28;20104;-68
2022/10/27 05:32:23;;;;;;;20.83;6.28;;;;;;;11.68;100.00;101934.31;5044362;28;20025;-68
2022/10/27 05:34:48;;;;;;;20.30;6.38;;;;;;;11.69;100.00;101944.03;5047336;28;20033;-68
2022/10/27 05:37:14;;;;;;;18.92;6.22;;;;;;;11.71;100.00;101930.81;5034933;28;20389;-68
2022/10/27 05:39:39;;;;;;;20.92;6.43;;;;;;;11.73;100.00;101939.66;5047662;28;20032;-66
2022/10/27 05:42:04;;;;;;;20.50;6.05;;;;;;;11.75;100.00;101932.66;5034701;28;20174;-75
2022/10/27 05:44:30;;;;;;;20.30;6.53;;;;;;;11.76;100.00;101925.59;5035519;28;20119;-77
2022/10/27 05:46:55;;;;;;;20.92;6.43;;;;;;;11.74;100.00;101927.34;5040203;28;20025;-73
2022/10/27 05:49:21;;;;;;;21.10;6.47;;;;;;;11.72;100.00;101929.06;5035445;28;20013;-77
2022/10/27 05:51:50;;;;;;;19.98;6.93;;;;;;;11.69;100.00;101930.78;5042063;28;20049;-70
2022/10/27 05:54:15;;;;;;;20.75;7.20;;;;;;;11.68;100.00;101929.00;5043520;28;20021;-68
2022/10/27 05:56:41;;;;;;;21.67;7.00;;;;;;;11.68;100.00;101925.47;5048672;28;20160;-74
2022/10/27 05:59:06;;;;;;;21.48;7.28;;;;;;;11.64;100.00;101929.81;5041840;28;20025;-73
2022/10/27 06:01:31;;;;;;;20.55;7.47;;;;;;;11.63;100.00;101925.38;5044205;28;20037;-68
2022/10/27 06:03:57;;;;;;;20.88;7.47;;;;;;;11.63;100.00;101927.13;5045775;28;20025;-79
2022/10/27 06:06:22;;;;;;;21.30;7.68;;;;;;;11.57;100.00;101922.63;5046112;28;20022;-74
2022/10/27 06:08:48;;;;;;;22.33;7.50;;;;;;;11.59;100.00;101922.66;5047679;28;20368;-73
2022/10/27 06:11:13;;;;;;;20.48;7.85;;;;;;;11.59;100.00;101925.28;5046859;28;20025;-71
2022/10/27 06:13:38;;;;;;;20.08;7.65;;;;;;;11.62;100.00;101922.69;5049737;28;20018;-75
2022/10/27 06:16:04;;;;;;;20.33;7.35;;;;;;;11.68;100.00;101915.75;5046200;28;20040;-68
2022/10/27 06:18:29;;;;;;;21.60;7.30;;;;;;;11.74;100.00;101916.75;5046869;28;20029;-73
2022/10/27 06:20:55;;;;;;;21.00;7.30;;;;;;;11.80;100.00;101911.53;5045578;28;20067;-70
2022/10/27 06:23:20;;;;;;;20.02;7.28;;;;;;;11.83;100.00;101919.53;5047793;28;20049;-77
2022/10/27 06:25:45;;;;;;;21.45;7.20;;;;;;;11.83;100.00;101908.94;5047566;28;20032;-72
2022/10/27 06:28:11;;;;;;;20.95;7.03;;;;;;;11.81;100.00;101911.56;5048465;28;20021;-81
2022/10/27 06:30:36;;;;;;;19.65;6.95;;;;;;;11.75;100.00;101907.91;5049765;28;20029;-77
2022/10/27 06:33:02;;;;;;;20.52;7.13;;;;;;;11.71;100.00;101912.28;5053207;28;20037;-73
2022/10/27 06:35:27;;;;;;;22.15;7.35;;;;;;;11.66;100.00;101911.28;5049695;28;20049;-83
2022/10/27 06:37:52;;;;;;;19.10;6.78;;;;;;;11.62;100.00;101910.38;5050075;28;20103;-72
2022/10/27 06:40:18;;;;;;;20.13;6.95;;;;;;;11.59;100.00;101909.41;5050319;28;20045;-79
2022/10/27 06:42:49;;;;;;;20.33;6.75;;;;;;;11.56;100.00;101909.34;5050358;28;20029;-86
2022/10/27 06:45:18;;;;;;;19.30;6.55;;;;;;;11.54;100.00;101906.69;5046863;28;20028;-77
2022/10/27 06:47:43;;;;;;;21.80;6.88;;;;;;;11.51;100.00;101907.50;5042351;28;20079;-81
2022/10/27 06:50:09;;;;;;;21.60;7.03;;;;;;;11.49;100.00;101898.66;5046893;28;20028;-79
2022/10/27 06:52:38;;;;;;;19.27;6.50;;;;;;;11.50;100.00;101902.19;5045922;28;20069;-80
2022/10/27 06:55:04;;;;;;;21.45;6.93;;;;;;;11.54;100.00;101901.38;5046828;28;20487;-80
2022/10/27 06:57:38;;;;;;;19.42;6.43;;;;;;;11.59;100.00;101893.50;5046428;28;20021;-77
2022/10/27 07:00:04;;;;;;;19.70;6.80;;;;;;;11.63;100.00;101884.75;5033293;28;20435;-81
2022/10/27 07:02:29;;;;;;;22.35;7.40;;;;;;;11.72;100.00;101889.31;5035043;28;20030;-76
2022/10/27 07:04:55;;;;;;;19.30;7.05;;;;;;;11.75;100.00;101884.97;5039184;28;20033;-75
2022/10/27 07:07:20;;;;;;;19.58;7.20;;;;;;;11.80;100.00;101893.88;5035143;28;20049;-81
2022/10/27 07:09:45;;;;;;;19.13;6.70;;;;;;;11.85;100.00;101896.59;5035774;28;20083;-71
2022/10/27 07:12:11;;;;;;;19.42;6.80;;;;;;;11.92;100.00;101897.59;5035127;28;20078;-76
2022/10/27 07:14:36;;;;;;;19.05;6.15;;;;;;;11.96;100.00;101907.41;5035633;28;20462;-78
2022/10/27 07:17:01;;;;;;;19.45;5.97;;;;;;;12.03;100.00;101909.28;5034044;28;20017;-79
2022/10/27 07:19:26;;;;;;;19.23;6.30;;;;;;;12.11;100.00;101898.78;5033730;28;20049;-81
2022/10/27 07:21:52;;;;;;;18.35;5.93;;;;;;;12.18;100.00;101901.53;5033222;28;20055;-76
2022/10/27 07:24:17;;;;;;;18.27;5.80;;;;;;;12.27;100.00;101902.56;5038702;28;20029;-69
2022/10/27 07:26:42;;;;;;;18.98;6.07;;;;;;;12.33;100.00;101903.53;5047050;28;20111;-69
2022/10/27 07:29:08;;;;;;;19.05;5.80;;;;;;;12.39;100.00;101902.72;5045661;28;20029;-69
2022/10/27 07:31:33;;;;;;;18.85;5.88;;;;;;;12.45;100.00;101892.22;5046564;28;20024;-68
2022/10/27 07:33:58;;;;;;;19.33;5.80;;;;;;;12.48;100.00;101892.25;5043288;28;20036;-69
2022/10/27 07:36:23;;;;;;;18.58;5.57;;;;;;;12.57;100.00;101886.16;5044336;28;20025;-69
2022/10/27 07:38:49;;;;;;;18.98;5.65;;;;;;;12.65;100.00;101892.44;5044270;28;20031;-65
2022/10/27 07:41:14;;;;;;;18.92;5.80;;;;;;;12.77;100.00;101893.47;5043542;28;20029;-66
2022/10/27 07:43:39;;;;;;;17.77;5.35;;;;;;;12.87;100.00;101896.25;5044881;28;20025;-66
2022/10/27 07:46:05;;;;;;;17.35;5.20;;;;;;;13.00;100.00;101909.66;5043469;28;20098;-68
2022/10/27 07:48:30;;;;;;;20.58;5.35;;;;;;;13.13;100.00;101908.91;5044490;28;20090;-67
2022/10/27 07:50:55;;;;;;;18.48;5.30;;;;;;;13.27;100.00;101908.19;5043315;28;20025;-67
2022/10/27 07:53:21;;;;;;;17.35;5.10;;;;;;;13.37;100.00;101907.44;5043547;28;20052;-66
2022/10/27 07:55:46;;;;;;;16.27;4.65;;;;;;;13.50;100.00;101911.06;5041579;28;20105;-67
2022/10/27 07:58:14;;;;;;;17.00;4.85;;;;;;;13.57;100.00;101913.81;5044769;28;20036;-67
2022/10/27 08:00:42;;;;;;;16.75;4.80;;;;;;;13.62;100.00;101915.63;5036806;28;20053;-65
2022/10/27 08:03:30;;;;;;;16.35;4.60;;;;;;;13.70;100.00;101908.59;5044816;28;20029;-65
2022/10/27 08:06:01;;;;;;;15.98;4.38;;;;;;;13.83;100.00;101915.78;5043936;28;20072;-65
2022/10/27 08:08:27;;;;;;;15.88;4.32;;;;;;;13.89;100.00;101902.56;5041738;28;20075;-65
2022/10/27 08:10:53;;;;;;;14.75;4.10;;;;;;;13.98;100.00;101900.84;5042145;28;20037;-64
2022/10/27 08:13:18;;;;;;;15.27;4.00;;;;;;;14.07;100.00;101903.56;5042461;28;20028;-65
2022/10/27 08:15:43;;;;;;;16.20;4.18;;;;;;;14.13;100.00;101908.94;5042336;28;20032;-64
2022/10/27 08:18:10;;;;;;;14.32;4.03;;;;;;;14.24;100.00;101901.91;5043622;28;20349;-64
2022/10/27 08:20:41;;;;;;;14.80;3.83;;;;;;;14.38;100.00;101891.34;5041055;28;20034;-67
2022/10/27 08:23:10;;;;;;;14.77;3.70;;;;;;;14.48;100.00;101881.63;5044311;28;20033;-68
2022/10/27 08:25:36;;;;;;;14.75;3.50;;;;;;;14.55;100.00;101887.88;5040979;28;20366;-67
2022/10/27 08:28:02;;;;;;;14.50;3.47;;;;;;;14.65;100.00;101892.41;5044239;28;20048;-67
2022/10/27 08:30:31;;;;;;;13.82;3.22;;;;;;;14.81;100.00;101888.03;5041277;28;20057;-67
2022/10/27 08:32:58;;;;;;;13.55;3.20;;;;;;;14.96;100.00;101900.47;5043625;28;20021;-67
2022/10/27 08:35:24;;;;;;;10.07;3.05;;;;;;;15.19;100.00;101896.97;5041842;28;20025;-67
2022/10/27 08:38:00;;;;;;;13.82;3.20;;;;;;;15.38;100.00;101904.13;5044206;28;20029;-67
2022/10/27 08:40:48;;;;;;;11.65;3.08;;;;;;;15.56;100.00;101895.25;5036656;28;20037;-67
2022/10/27 08:43:35;;;;;;;16.17;3.20;;;;;;;15.83;100.00;101891.72;5041124;28;20032;-68
2022/10/27 08:46:08;;;;;;;14.50;3.10;;;;;;;16.12;100.00;101888.13;5037565;28;20029;-67
2022/10/27 08:48:36;;;;;;;11.40;3.10;;;;;;;16.31;100.00;101885.38;5042241;28;20108;-66
2022/10/27 08:51:02;;;;;;;12.82;3.42;;;;;;;16.42;100.00;101874.69;5040494;28;20490;-66
2022/10/27 08:53:35;;;;;;;8.77;2.58;;;;;;;16.51;100.00;101877.31;5045908;28;20516;-67
2022/10/27 08:56:09;;;;;;;8.18;2.60;;;;;;;16.54;100.00;101869.31;5041461;28;20033;-67
2022/10/27 08:58:41;;;;;;;10.98;2.70;;;;;;;16.58;100.00;101865.72;5036856;28;20021;-72
2022/10/27 09:01:18;;;;;;;11.75;2.70;;;;;;;16.68;100.00;101866.59;5035396;28;20017;-74
2022/10/27 09:04:08;;;;;;;9.85;2.63;;;;;;;16.92;100.00;101851.34;5034870;28;20100;-68
2022/10/27 09:06:52;;;;;;;9.85;2.58;;;;;;;17.11;100.00;101850.34;5036950;28;20495;-69
2022/10/27 09:09:20;;;;;;;10.65;2.40;;;;;;;17.20;100.00;101842.25;5036839;28;20018;-61
2022/10/27 09:11:59;;;;;;;6.47;2.50;;;;;;;17.33;100.00;101847.50;5038596;28;20033;-61
2022/10/27 09:14:40;;;;;;;15.52;2.80;;;;;;;17.45;100.00;101851.88;5036748;28;20056;-61
2022/10/27 09:17:24;;;;;;;13.55;2.70;;;;;;;17.65;100.00;101846.34;5036175;28;20022;-62
2022/10/27 09:20:00;;;;;;;9.50;2.50;;;;;;;17.77;100.00;101844.44;5034330;28;20447;-61
2022/10/27 09:22:28;;;;;;;10.43;2.40;;;;;;;17.92;100.00;101847.91;5036991;28;20494;-61
2022/10/27 09:25:01;;;;;;;11.20;2.60;;;;;;;18.01;100.00;101845.09;5035646;28;20026;-61
2022/10/27 09:27:27;;;;;;;9.02;2.38;;;;;;;18.03;100.00;101842.44;5033291;28;20443;-61
2022/10/27 09:29:57;;;;;;;9.02;2.28;;;;;;;18.16;100.00;101845.84;5042456;28;20101;-62
2022/10/27 09:32:25;;;;;;;12.32;2.50;;;;;;;18.27;100.00;101839.47;5049624;28;20510;-62
2022/10/27 09:35:11;;;;;;;11.82;2.30;;;;;;;18.42;100.00;101834.81;5048786;28;20025;-61
2022/10/27 09:37:39;;;;;;;9.65;2.40;;;;;;;18.51;100.00;101831.16;5051243;28;20480;-60
2022/10/27 09:40:13;;;;;;;7.28;2.30;;;;;;;18.52;100.00;101835.59;5051203;28;20074;-61
2022/10/27 09:42:40;;;;;;;11.50;2.50;;;;;;;18.63;100.00;101826.50;5040351;28;20064;-63
2022/10/27 09:45:13;;;;;;;10.85;2.40;;;;;;;18.82;100.00;101828.94;5045972;28;20468;-62
2022/10/27 09:47:43;;;;;;;9.00;2.40;;;;;;;18.92;100.00;101822.56;5042981;28;20410;-61
2022/10/27 09:50:20;;;;;;;12.18;2.38;;;;;;;19.04;100.00;101816.13;5048157;28;20461;-61
2022/10/27 09:52:47;;;;;;;9.98;2.30;;;;;;;19.32;100.00;101816.59;5041736;28;20045;-61
2022/10/27 09:55:13;;;;;;;9.60;2.30;;;;;;;19.90;100.00;101818.28;5045884;28;20044;-61
2022/10/27 09:57:41;;;;;;;8.63;2.30;;;;;;;20.25;100.00;101824.75;5048717;28;20062;-61
2022/10/27 10:00:22;;;;;;;11.43;2.30;;;;;;;20.58;100.00;101833.88;5048249;28;20060;-63
2022/10/27 10:03:00;;;;;;;27.45;2.80;;;;;;;20.89;100.00;101826.03;5044111;28;20052;-63
2022/10/27 10:05:35;;;;;;;9.68;2.30;;;;;;;21.22;100.00;101820.78;5045708;28;20033;-62
2022/10/27 10:08:25;;;;;;;10.10;2.28;;;;;;;21.94;100.00;101823.44;5035429;28;20025;-63
2022/10/27 10:10:58;;;;;;;9.70;2.22;;;;;;;22.50;100.00;101815.56;5035239;28;20044;-68
2022/10/27 10:13:24;;;;;;;;;;;;;;;22.66;100.00;101799.81;5037547;28;20041;-67
2022/10/27 10:16:06;;;;;;;11.57;2.33;;;;;;;22.90;100.00;101795.47;5035783;28;20296;-67
2022/10/27 10:18:32;;;;;;;;;;;;;;;23.67;100.00;101791.06;5035458;28;20025;-68
2022/10/27 10:21:15;;;;;;;12.93;2.33;;;;;;;23.63;89.97;101797.50;5034345;28;19912;-67
2022/10/27 10:23:52;;;;;;;9.02;2.35;;;;;;;23.09;91.63;101795.75;5034901;28;20030;-66
2022/10/27 10:26:19;;;;;;;10.38;2.50;;;;;;;22.69;89.09;101805.09;5027213;28;20041;-64
2022/10/27 10:28:46;;;;;;;7.13;2.10;;;;;;;22.46;90.22;101794.09;5046673;28;20036;-64
2022/10/27 10:31:19;;;;;;;11.90;2.30;;;;;;;22.20;92.15;101794.84;5044335;28;20044;-66
2022/10/27 10:33:46;;;;;;;9.88;2.35;;;;;;;21.80;92.20;101801.41;5041972;28;20025;-66
2022/10/27 10:36:27;;;;;;;8.43;2.20;;;;;;;21.79;93.90;101799.63;5042840;28;20037;-66
2022/10/27 10:38:58;;;;;;;12.30;2.70;;;;;;;21.76;96.18;101794.31;5041913;28;20022;-66
2022/10/27 10:41:26;;;;;;;11.23;2.75;;;;;;;21.86;92.48;101790.44;5044831;28;20083;-66
2022/10/27 10:44:12;;;;;;;9.50;2.42;;;;;;;21.70;95.56;101783.75;5043652;28;20033;-64
2022/10/27 10:46:58;;;;;;;11.52;2.40;;;;;;;21.56;98.08;101771.53;5042497;28;20108;-66
2022/10/27 10:49:48;;;;;;;9.20;2.40;;;;;;;21.91;96.73;101769.66;5041682;28;20481;-66
2022/10/27 10:52:23;;;;;;;10.40;2.40;;;;;;;22.32;96.13;101782.88;5038940;28;20077;-65
2022/10/27 10:54:48;;;;;;;10.98;2.50;;;;;;;22.61;91.73;101771.19;5045315;28;20067;-67
2022/10/27 10:57:19;;;;;;;9.60;2.60;;;;;;;22.58;93.96;101771.28;5042751;28;20485;-66
2022/10/27 10:59:53;;;;;;;12.07;2.40;;;;;;;22.61;91.77;101773.88;5043966;28;20383;-67
2022/10/27 11:02:30;;;;;;;14.77;2.60;;;;;;;22.25;92.79;101768.69;5035124;28;20485;-62
2022/10/27 11:05:08;;;;;;;8.73;2.53;;;;;;;21.93;93.51;101769.59;5034013;28;20029;-69
2022/10/27 11:07:34;;;;;;;11.68;2.50;;;;;;;21.66;95.70;101765.91;5035290;28;20029;-71
2022/10/27 11:10:12;;;;;;;12.77;2.72;;;;;;;21.59;96.41;101766.06;5033942;28;20025;-68
2022/10/27 11:12:49;;;;;;;11.52;2.55;;;;;;;21.65;97.88;101769.50;5036947;28;20106;-68
2022/10/27 11:15:40;;;;;;;10.38;2.45;;;;;;;21.69;97.77;101782.84;5040937;28;20469;-68
2022/10/27 11:18:20;;;;;;;10.70;2.50;;;;;;;21.42;99.22;101768.28;5030671;28;20056;-62
2022/10/27 11:20:51;;;;;;;7.85;2.40;;;;;;;21.21;100.00;101759.84;5033758;28;20075;-62
2022/10/27 11:23:22;;;;;;;15.38;2.83;;;;;;;21.09;100.00;101760.19;5037220;28;20535;-62